createdAt,value
2023-05-14T00:02:11.971Z,18.96
2023-05-14T00:07:14.253Z,19.05
2023-05-14T00:12:16.441Z,19.00
2023-05-14T00:17:19.550Z,18.99
2023-05-14T00:22:21.839Z,18.72
2023-05-14T00:27:24.733Z,18.92
2023-05-14T00:32:27.109Z,19.00
2023-05-14T00:37:29.388Z,18.85
2023-05-14T00:42:31.689Z,18.83
2023-05-14T00:47:35.320Z,18.71
2023-05-14T00:52:39.027Z,18.64
2023-05-14T00:57:41.319Z,18.61
2023-05-14T01:02:43.640Z,18.52
2023-05-14T01:08:01.112Z,18.45
2023-05-14T01:13:28.529Z,18.31
2023-05-14T01:18:33.398Z,18.46
2023-05-14T01:23:35.681Z,18.44
2023-05-14T01:28:39.012Z,18.42
2023-05-14T01:33:43.841Z,18.32
2023-05-14T01:38:48.527Z,18.36
2023-05-14T01:43:50.937Z,18.16
2023-05-14T01:48:53.175Z,18.33
2023-05-14T01:53:55.454Z,18.25
2023-05-14T01:58:57.605Z,18.15
2023-05-14T02:04:01.509Z,18.33
2023-05-14T02:09:05.408Z,18.21
2023-05-14T02:14:07.559Z,18.22
2023-05-14T02:19:10.206Z,18.14
2023-05-14T02:24:12.650Z,18.20
2023-05-14T02:29:14.867Z,18.11
2023-05-14T02:34:17.157Z,18.28
2023-05-14T02:39:19.436Z,18.11
2023-05-14T02:44:21.765Z,17.99
2023-05-14T02:49:23.990Z,17.88
2023-05-14T02:54:26.179Z,17.89
2023-05-14T02:59:28.601Z,17.98
2023-05-14T03:04:31.266Z,17.95
2023-05-14T03:09:34.243Z,18.00
2023-05-14T03:14:37.567Z,17.94
2023-05-14T03:19:40.049Z,18.02
2023-05-14T03:24:42.288Z,17.91
2023-05-14T03:29:44.591Z,17.99
2023-05-14T03:34:46.796Z,17.80
2023-05-14T03:39:49.000Z,18.01
2023-05-14T03:44:51.235Z,18.04
2023-05-14T03:49:53.539Z,17.94
2023-05-14T03:54:55.858Z,17.86
2023-05-14T03:59:58.149Z,17.82
2023-05-14T04:05:00.438Z,17.98
2023-05-14T04:10:04.689Z,18.02
2023-05-14T04:15:07.841Z,17.93
2023-05-14T04:20:10.616Z,18.03
2023-05-14T04:25:12.914Z,17.99
2023-05-14T04:30:15.328Z,17.99
2023-05-14T04:35:17.518Z,18.12
2023-05-14T04:40:19.889Z,18.13
2023-05-14T04:45:22.213Z,18.07
2023-05-14T04:50:24.737Z,18.11
2023-05-14T04:55:27.260Z,18.06
2023-05-14T05:00:30.122Z,18.13
2023-05-14T05:05:32.430Z,18.16
2023-05-14T05:10:34.749Z,18.13
2023-05-14T05:15:37.073Z,18.11
2023-05-14T05:20:39.326Z,17.98
2023-05-14T05:25:41.754Z,18.24
2023-05-14T05:30:45.933Z,18.31
2023-05-14T05:35:49.391Z,18.30
2023-05-14T05:40:51.585Z,18.32
2023-05-14T05:45:53.753Z,18.31
2023-05-14T05:50:56.081Z,18.47
2023-05-14T05:55:58.363Z,18.44
2023-05-14T06:01:00.678Z,18.28
2023-05-14T06:06:03.411Z,18.46
2023-05-14T06:11:05.762Z,18.48
2023-05-14T06:16:08.073Z,18.58
2023-05-14T06:21:10.381Z,18.65
2023-05-14T06:26:12.560Z,18.66
2023-05-14T06:31:14.800Z,18.73
2023-05-14T06:36:17.013Z,18.71
2023-05-14T06:41:19.252Z,18.84
2023-05-14T06:46:21.995Z,18.99
2023-05-14T06:51:24.175Z,18.90
2023-05-14T06:56:26.538Z,18.90
2023-05-14T07:01:28.915Z,18.98
2023-05-14T07:06:31.287Z,18.88
2023-05-14T07:11:33.977Z,18.97
2023-05-14T07:16:36.593Z,18.79
2023-05-14T07:21:38.947Z,19.11
2023-05-14T07:26:41.213Z,19.16
2023-05-14T07:31:43.913Z,19.20
2023-05-14T07:36:47.298Z,19.29
2023-05-14T07:41:50.581Z,19.40
2023-05-14T07:46:52.759Z,19.60
2023-05-14T07:51:55.043Z,19.82
2023-05-14T07:56:57.343Z,20.11
2023-05-14T08:01:59.615Z,20.50
2023-05-14T08:07:01.991Z,20.66
2023-05-14T08:12:04.811Z,20.85
2023-05-14T08:17:07.056Z,20.77
2023-05-14T08:22:09.388Z,20.88
2023-05-14T08:27:11.566Z,20.95
2023-05-14T08:32:22.706Z,20.92
2023-05-14T08:37:26.004Z,20.97
2023-05-14T08:42:29.685Z,21.00
2023-05-14T08:47:32.389Z,21.25
2023-05-14T08:52:35.635Z,21.32
2023-05-14T08:57:38.030Z,21.40
2023-05-14T09:02:41.316Z,21.56
2023-05-14T09:07:43.825Z,21.47
2023-05-14T09:12:46.193Z,21.40
2023-05-14T09:17:49.071Z,21.64
2023-05-14T09:22:55.082Z,21.91
2023-05-14T09:27:58.777Z,21.98
2023-05-14T09:33:01.993Z,22.21
2023-05-14T09:38:04.325Z,22.36
2023-05-14T09:43:06.819Z,22.60
2023-05-14T09:48:09.657Z,22.67
2023-05-14T09:53:12.248Z,22.95
2023-05-14T09:58:17.255Z,22.96
2023-05-14T10:03:20.879Z,23.15
2023-05-14T10:08:27.656Z,23.46
2023-05-14T10:13:42.074Z,23.61
2023-05-14T10:18:48.874Z,23.63
2023-05-14T10:23:52.066Z,23.65
2023-05-14T10:28:54.681Z,23.78
2023-05-14T10:33:58.024Z,23.63
2023-05-14T10:39:04.787Z,23.68
2023-05-14T10:44:10.584Z,23.62
2023-05-14T10:49:12.804Z,23.49
2023-05-14T10:54:17.378Z,23.43
2023-05-14T10:59:20.080Z,23.40
2023-05-14T11:04:25.464Z,23.43
2023-05-14T11:09:28.412Z,23.42
2023-05-14T11:14:30.786Z,23.52
2023-05-14T11:19:33.076Z,23.60
2023-05-14T11:24:35.386Z,23.98
2023-05-14T11:29:38.842Z,24.36
2023-05-14T11:34:42.178Z,24.44
2023-05-14T11:39:53.256Z,24.30
2023-05-14T11:44:55.580Z,24.33
2023-05-14T11:49:57.992Z,24.52
2023-05-14T11:55:00.344Z,24.85
2023-05-14T12:00:02.675Z,24.85
2023-05-14T12:05:07.738Z,24.79
2023-05-14T12:10:13.420Z,24.60
2023-05-14T12:15:19.584Z,24.73
2023-05-14T12:20:22.089Z,24.74
2023-05-14T12:25:26.484Z,25.10
2023-05-14T12:30:28.852Z,25.26
2023-05-14T12:35:31.182Z,25.07
2023-05-14T12:40:33.675Z,25.19
2023-05-14T12:45:35.965Z,25.51
2023-05-14T12:50:38.185Z,25.80
2023-05-14T12:55:40.337Z,26.03
2023-05-14T13:00:42.657Z,26.11
2023-05-14T13:05:45.034Z,26.26
2023-05-14T13:10:47.562Z,26.23
2023-05-14T13:15:50.051Z,26.40
2023-05-14T13:20:52.415Z,26.43
2023-05-14T13:25:54.610Z,26.57
2023-05-14T13:31:14.708Z,26.50
2023-05-14T13:36:16.940Z,26.45
2023-05-14T13:41:19.369Z,26.60
2023-05-14T13:46:21.717Z,26.70
2023-05-14T13:51:24.178Z,26.62
2023-05-14T13:56:26.657Z,26.78
2023-05-14T14:01:31.072Z,26.85
2023-05-14T14:06:33.692Z,26.82
2023-05-14T14:11:36.226Z,26.91
2023-05-14T14:16:38.633Z,26.76
2023-05-14T14:21:43.181Z,27.23
2023-05-14T14:26:45.420Z,27.39
2023-05-14T14:31:47.720Z,27.19
2023-05-14T14:36:49.978Z,27.05
2023-05-14T14:41:52.280Z,27.02
2023-05-14T14:46:54.499Z,26.89
2023-05-14T14:51:56.802Z,26.63
2023-05-14T14:56:59.069Z,26.49
2023-05-14T15:02:01.308Z,26.37
2023-05-14T15:07:03.616Z,26.20
2023-05-14T15:12:06.674Z,26.12
2023-05-14T15:17:08.956Z,26.32
2023-05-14T15:22:11.405Z,26.33
2023-05-14T15:27:13.625Z,26.57
2023-05-14T15:32:17.513Z,26.52
2023-05-14T15:37:19.696Z,26.30
2023-05-14T15:42:21.988Z,26.09
2023-05-14T15:47:24.364Z,25.42
2023-05-14T15:52:26.998Z,25.09
2023-05-14T15:57:29.234Z,24.77
2023-05-14T16:02:33.620Z,24.56
2023-05-14T16:07:36.469Z,24.57
2023-05-14T16:12:38.750Z,24.25
2023-05-14T16:17:41.272Z,24.15
2023-05-14T16:22:43.453Z,24.08
2023-05-14T16:27:45.689Z,24.07
2023-05-14T16:32:49.803Z,23.70
2023-05-14T16:37:51.917Z,23.51
2023-05-14T16:42:54.032Z,23.28
2023-05-14T16:47:56.234Z,23.12
2023-05-14T16:52:58.428Z,22.72
2023-05-14T16:58:00.552Z,22.74
2023-05-14T17:03:03.677Z,22.69
2023-05-14T17:08:06.251Z,22.53
2023-05-14T17:13:08.461Z,22.39
2023-05-14T17:18:12.286Z,22.29
2023-05-14T17:23:14.437Z,22.13
2023-05-14T17:28:16.649Z,22.02
2023-05-14T17:33:18.929Z,21.87
2023-05-14T17:38:21.117Z,21.71
2023-05-14T17:43:23.317Z,21.65
2023-05-14T17:48:25.604Z,21.48
2023-05-14T17:53:27.811Z,21.37
2023-05-14T17:58:30.146Z,21.27
2023-05-14T18:03:32.508Z,21.14
2023-05-14T18:08:34.751Z,21.10
2023-05-14T18:13:37.083Z,20.94
2023-05-14T18:18:39.338Z,20.92
2023-05-14T18:23:41.518Z,20.80
2023-05-14T18:28:43.748Z,20.73
2023-05-14T18:33:45.901Z,20.76
2023-05-14T18:38:48.099Z,20.77
2023-05-14T18:43:50.369Z,20.74
2023-05-14T18:48:52.525Z,20.84
2023-05-14T18:53:55.055Z,20.92
2023-05-14T18:58:57.232Z,20.97
2023-05-14T19:03:59.476Z,20.70
2023-05-14T19:09:02.087Z,20.75
2023-05-14T19:14:04.328Z,20.63
2023-05-14T19:19:06.596Z,20.54
2023-05-14T19:24:09.063Z,20.52
2023-05-14T19:29:11.474Z,20.50
2023-05-14T19:34:14.397Z,20.51
2023-05-14T19:39:16.753Z,20.50
2023-05-14T19:44:18.993Z,20.29
2023-05-14T19:49:21.187Z,20.35
2023-05-14T19:54:23.290Z,20.31
2023-05-14T19:59:25.683Z,20.33
2023-05-14T20:04:28.483Z,20.35
2023-05-14T20:09:30.743Z,20.27
2023-05-14T20:14:32.848Z,20.31
2023-05-14T20:19:35.299Z,20.27
2023-05-14T20:24:37.414Z,20.35
2023-05-14T20:29:39.492Z,20.32
2023-05-14T20:34:41.650Z,20.17
2023-05-14T20:39:44.044Z,20.10
2023-05-14T20:44:48.557Z,20.06
2023-05-14T20:49:51.578Z,20.07
2023-05-14T20:54:53.839Z,20.00
2023-05-14T20:59:56.014Z,19.96
2023-05-14T21:04:58.285Z,19.95
2023-05-14T21:10:00.521Z,19.89
2023-05-14T21:15:03.074Z,19.93
2023-05-14T21:20:05.676Z,19.75
2023-05-14T21:25:08.226Z,19.78
2023-05-14T21:30:10.999Z,19.72
2023-05-14T21:35:13.212Z,19.70
2023-05-14T21:40:15.567Z,19.63
2023-05-14T21:45:17.714Z,19.66
2023-05-14T21:50:20.143Z,19.52
2023-05-14T21:55:22.797Z,19.48
2023-05-14T22:00:25.543Z,19.41
2023-05-14T22:05:27.955Z,19.49
2023-05-14T22:10:31.631Z,19.46
2023-05-14T22:15:33.841Z,19.35
2023-05-14T22:20:36.472Z,19.32
2023-05-14T22:25:38.649Z,19.17
2023-05-14T22:30:40.892Z,19.28
2023-05-14T22:35:43.000Z,19.24
2023-05-14T22:40:45.082Z,19.22
2023-05-14T22:45:47.209Z,19.22
2023-05-14T22:50:49.308Z,19.23
2023-05-14T22:55:51.586Z,19.23
2023-05-14T23:00:53.714Z,19.16
2023-05-14T23:05:56.042Z,19.11
2023-05-14T23:10:58.105Z,19.09
2023-05-14T23:16:01.286Z,18.96
2023-05-14T23:21:03.603Z,19.11
2023-05-14T23:26:05.895Z,18.81
2023-05-14T23:31:08.021Z,18.94
2023-05-14T23:36:10.879Z,18.95
2023-05-14T23:41:13.058Z,18.96
2023-05-14T23:46:15.810Z,18.88
2023-05-14T23:51:19.019Z,18.92
2023-05-14T23:56:21.190Z,18.86
